Time;durP1;ratioP1;P1;durP2;ratioP2;P2;SDS_P1;SDS_P2;PMS_P1;PMS_P2;Temp;Humidity;BMP_temperature;BMP_pressure;BME280_temperature;BME280_humidity;BME280_pressure;Samples;Min_cycle;Max_cycle;Signal;HPM_P1;HPM_P2
2022/04/13 00:02:12;;;;;;;0.55;0.50;;;19.50;56.40;;;;;;4948863;29;20225;-60
2022/04/13 00:04:45;;;;;;;0.40;0.40;;;19.60;56.40;;;;;;4949503;28;20234;-60
2022/04/13 00:07:15;;;;;;;0.90;0.60;;;19.60;56.40;;;;;;4949427;28;20818;-59
2022/04/13 00:09:46;;;;;;;0.93;0.70;;;19.60;56.40;;;;;;4949948;28;20277;-60
2022/04/13 00:12:16;;;;;;;2.85;0.60;;;19.60;56.40;;;;;;4949417;28;20309;-60
2022/04/13 00:14:47;;;;;;;1.75;0.50;;;19.70;56.70;;;;;;4949381;29;20283;-59
2022/04/13 00:17:17;;;;;;;1.15;0.70;;;19.70;56.90;;;;;;4949131;29;20250;-60
2022/04/13 00:19:49;;;;;;;0.65;0.50;;;19.80;56.90;;;;;;4949390;28;20676;-59
2022/04/13 00:22:20;;;;;;;0.68;0.65;;;19.80;56.90;;;;;;4953115;28;20306;-60
2022/04/13 00:24:50;;;;;;;0.52;0.50;;;19.80;56.80;;;;;;4952924;28;20314;-59
2022/04/13 00:27:21;;;;;;;1.15;0.57;;;19.90;56.80;;;;;;4953007;29;20233;-60
2022/04/13 00:29:51;;;;;;;0.68;0.45;;;19.90;56.80;;;;;;4953525;28;20285;-60
2022/04/13 00:32:22;;;;;;;1.08;0.60;;;19.90;56.70;;;;;;4980482;23;20245;-57
2022/04/13 00:34:54;;;;;;;0.63;0.60;;;19.90;56.70;;;;;;4933817;29;20207;-58
2022/04/13 00:37:24;;;;;;;0.85;0.60;;;19.90;56.60;;;;;;4934073;29;20306;-58
2022/04/13 00:39:55;;;;;;;0.95;0.55;;;20.00;56.70;;;;;;4933402;29;20747;-58
2022/04/13 00:42:26;;;;;;;0.73;0.60;;;20.00;56.70;;;;;;4933629;29;20654;-58
2022/04/13 00:44:57;;;;;;;1.38;0.60;;;20.00;56.70;;;;;;4933394;29;20235;-58
2022/04/13 00:47:28;;;;;;;0.80;0.50;;;20.10;56.70;;;;;;4933195;29;20242;-58
2022/04/13 00:50:00;;;;;;;0.70;0.40;;;20.10;56.60;;;;;;4933768;29;20668;-58
2022/04/13 00:52:33;;;;;;;0.93;0.50;;;20.10;56.60;;;;;;4933980;29;20294;-59
2022/04/13 00:55:04;;;;;;;0.60;0.50;;;20.20;56.60;;;;;;4933796;29;20231;-58
2022/04/13 00:57:37;;;;;;;1.15;0.60;;;20.20;56.50;;;;;;4933651;29;20263;-58
2022/04/13 01:00:10;;;;;;;0.88;0.70;;;20.20;56.50;;;;;;4933756;29;20287;-59
2022/04/13 01:02:44;;;;;;;1.83;0.90;;;20.20;56.50;;;;;;4933612;29;20238;-58
2022/04/13 01:05:18;;;;;;;1.13;0.47;;;20.20;56.50;;;;;;4933819;29;20250;-58
2022/04/13 01:07:49;;;;;;;0.60;0.50;;;20.30;56.50;;;;;;4933345;29;20227;-58
2022/04/13 01:10:21;;;;;;;0.77;0.50;;;20.30;56.40;;;;;;4933097;29;20719;-58
2022/04/13 01:12:51;;;;;;;0.70;0.70;;;20.30;56.30;;;;;;4933350;29;20247;-58
2022/04/13 01:15:22;;;;;;;1.23;0.50;;;20.30;56.30;;;;;;4933799;29;20239;-58
2022/04/13 01:17:53;;;;;;;0.82;0.57;;;20.30;56.20;;;;;;4933789;29;20234;-58
2022/04/13 01:20:26;;;;;;;0.82;0.50;;;20.40;56.30;;;;;;4933578;29;20231;-59
2022/04/13 01:22:58;;;;;;;1.08;0.88;;;20.40;56.10;;;;;;4933469;29;20614;-58
2022/04/13 01:25:29;;;;;;;1.15;0.50;;;20.40;56.00;;;;;;4933210;29;20219;-57
2022/04/13 01:28:00;;;;;;;0.63;0.60;;;20.40;56.00;;;;;;4933064;29;20203;-59
2022/04/13 01:30:30;;;;;;;1.13;0.70;;;20.40;55.90;;;;;;4933221;29;20199;-59
2022/04/13 01:33:02;;;;;;;1.35;0.70;;;20.40;55.90;;;;;;4931753;29;20299;-57
2022/04/13 01:35:33;;;;;;;1.00;0.68;;;20.50;56.00;;;;;;4933170;29;20708;-58
2022/04/13 01:38:06;;;;;;;0.90;0.82;;;20.40;55.90;;;;;;4933451;29;20207;-59
2022/04/13 01:40:36;;;;;;;1.42;0.70;;;20.50;56.00;;;;;;4932495;29;20283;-58
2022/04/13 01:43:07;;;;;;;0.77;0.55;;;20.50;55.90;;;;;;4933204;29;20196;-58
2022/04/13 01:45:37;;;;;;;1.20;0.63;;;20.50;55.90;;;;;;4932134;29;20314;-58
2022/04/13 01:48:10;;;;;;;1.85;0.50;;;20.50;55.80;;;;;;4932586;29;20278;-58
2022/04/13 01:50:41;;;;;;;1.33;0.50;;;20.50;55.80;;;;;;4933149;29;20204;-59
2022/04/13 01:53:13;;;;;;;0.68;0.50;;;20.50;55.80;;;;;;4932377;29;20291;-59
2022/04/13 01:55:44;;;;;;;1.45;0.60;;;20.50;55.80;;;;;;4933082;29;20282;-58
2022/04/13 01:58:14;;;;;;;0.63;0.40;;;20.50;55.70;;;;;;4932462;29;20302;-59
2022/04/13 02:00:44;;;;;;;1.00;0.70;;;20.60;55.70;;;;;;4931700;29;20298;-58
2022/04/13 02:03:15;;;;;;;1.33;0.68;;;20.50;55.60;;;;;;4932311;29;20290;-58
2022/04/13 02:05:46;;;;;;;0.98;0.60;;;20.50;55.50;;;;;;4932181;29;20590;-58
2022/04/13 02:08:18;;;;;;;1.27;0.63;;;20.60;55.50;;;;;;4932492;29;20595;-59
2022/04/13 02:10:48;;;;;;;1.35;0.70;;;20.60;55.70;;;;;;4932995;29;20315;-56
2022/04/13 02:13:19;;;;;;;0.80;0.60;;;20.60;56.20;;;;;;4931838;29;20287;-58
2022/04/13 02:15:49;;;;;;;1.40;0.80;;;20.60;56.20;;;;;;4932342;29;20258;-58
2022/04/13 02:18:20;;;;;;;0.43;0.40;;;20.60;56.20;;;;;;4932569;29;20238;-58
2022/04/13 02:20:50;;;;;;;0.60;0.50;;;20.70;56.10;;;;;;4931981;29;20307;-59
2022/04/13 02:23:23;;;;;;;0.65;0.60;;;20.60;56.00;;;;;;4932973;29;20644;-58
2022/04/13 02:25:53;;;;;;;1.98;0.60;;;20.70;56.00;;;;;;4931477;29;20326;-59
2022/04/13 02:28:24;;;;;;;0.90;0.77;;;20.70;55.90;;;;;;4932537;29;20630;-57
2022/04/13 02:30:54;;;;;;;0.57;0.50;;;20.70;55.80;;;;;;4932298;29;20322;-56
2022/04/13 02:33:25;;;;;;;1.30;0.70;;;20.70;55.80;;;;;;4932117;29;20282;-57
2022/04/13 02:35:55;;;;;;;0.93;0.60;;;20.70;55.70;;;;;;4932390;29;20195;-56
2022/04/13 02:38:28;;;;;;;0.70;0.60;;;20.70;55.60;;;;;;4930138;29;20283;-59
2022/04/13 02:40:58;;;;;;;1.20;0.77;;;20.70;55.50;;;;;;4931286;29;20742;-58
2022/04/13 02:43:29;;;;;;;0.85;0.60;;;20.70;55.40;;;;;;4930446;29;20677;-58
2022/04/13 02:46:00;;;;;;;1.17;0.70;;;20.80;55.40;;;;;;4930893;29;20262;-58
2022/04/13 02:48:30;;;;;;;0.60;0.55;;;20.80;55.30;;;;;;4930543;29;20283;-58
2022/04/13 02:51:01;;;;;;;1.75;0.77;;;20.80;55.20;;;;;;4931088;29;20330;-59
2022/04/13 02:53:34;;;;;;;0.70;0.50;;;20.80;55.10;;;;;;4931586;29;20290;-59
2022/04/13 02:56:04;;;;;;;0.90;0.60;;;20.80;55.00;;;;;;4931026;29;20287;-57
2022/04/13 02:58:35;;;;;;;1.98;0.60;;;20.80;55.00;;;;;;4929223;29;20227;-58
2022/04/13 03:01:06;;;;;;;0.90;0.60;;;20.80;54.90;;;;;;4931381;29;20224;-58
2022/04/13 03:03:37;;;;;;;1.27;0.77;;;20.80;54.90;;;;;;4931427;29;20203;-58
2022/04/13 03:06:07;;;;;;;1.98;0.90;;;20.80;54.80;;;;;;4931108;29;20329;-58
2022/04/13 03:08:39;;;;;;;0.75;0.50;;;20.80;54.80;;;;;;4931651;29;20278;-59
2022/04/13 03:11:11;;;;;;;0.85;0.50;;;20.90;54.90;;;;;;4930234;29;20314;-58
2022/04/13 03:13:41;;;;;;;0.73;0.52;;;20.80;54.80;;;;;;4929920;29;20231;-59
2022/04/13 03:16:12;;;;;;;1.63;0.70;;;20.90;54.90;;;;;;4930935;29;20278;-59
2022/04/13 03:18:42;;;;;;;1.55;0.63;;;20.90;54.90;;;;;;4931607;29;20282;-59
2022/04/13 03:21:13;;;;;;;2.05;0.50;;;20.90;55.00;;;;;;4930749;29;20302;-58
2022/04/13 03:23:48;;;;;;;0.93;0.63;;;20.90;54.90;;;;;;4929937;29;20278;-59
2022/04/13 03:26:18;;;;;;;0.98;0.60;;;20.90;54.90;;;;;;4929670;29;20313;-59
2022/04/13 03:28:49;;;;;;;0.52;0.40;;;21.00;54.90;;;;;;4929910;29;20279;-57
2022/04/13 03:31:20;;;;;;;1.20;0.50;;;20.90;54.80;;;;;;4931002;29;20270;-59
2022/04/13 03:33:50;;;;;;;1.33;0.60;;;21.00;54.80;;;;;;4930720;29;20290;-58
2022/04/13 03:36:21;;;;;;;1.00;0.70;;;21.00;54.80;;;;;;4931675;29;20218;-58
2022/04/13 03:38:53;;;;;;;1.67;0.60;;;21.00;54.70;;;;;;4928399;29;20298;-59
2022/04/13 03:41:24;;;;;;;0.30;0.30;;;21.10;54.70;;;;;;4930844;29;20294;-58
2022/04/13 03:43:54;;;;;;;0.73;0.50;;;21.00;54.60;;;;;;4930359;29;20719;-59
2022/04/13 03:46:24;;;;;;;0.82;0.60;;;21.00;54.70;;;;;;4931419;29;20793;-58
2022/04/13 03:48:55;;;;;;;1.15;0.60;;;21.10;54.60;;;;;;4931166;29;20227;-58
2022/04/13 03:51:25;;;;;;;1.20;0.60;;;21.10;54.50;;;;;;4930477;29;20268;-59
2022/04/13 03:53:58;;;;;;;0.70;0.70;;;21.10;54.50;;;;;;4930852;29;20364;-59
2022/04/13 03:56:29;;;;;;;1.13;0.60;;;21.10;54.40;;;;;;4932492;29;20282;-58
2022/04/13 03:59:00;;;;;;;0.90;0.60;;;21.10;54.30;;;;;;4935248;29;20218;-59
2022/04/13 04:01:31;;;;;;;0.82;0.60;;;21.10;54.20;;;;;;4934701;29;20633;-56
2022/04/13 04:04:02;;;;;;;1.52;0.50;;;21.10;54.20;;;;;;4934966;29;20222;-59
2022/04/13 04:06:32;;;;;;;1.73;0.70;;;21.20;54.30;;;;;;4933876;29;20319;-58
2022/04/13 04:09:04;;;;;;;1.17;0.70;;;21.20;54.30;;;;;;4934965;29;20890;-59
2022/04/13 04:11:35;;;;;;;0.77;0.60;;;21.10;54.30;;;;;;4934899;29;20261;-59
2022/04/13 04:14:05;;;;;;;0.47;0.47;;;21.20;54.30;;;;;;4934030;29;20255;-57
2022/04/13 04:16:36;;;;;;;1.15;0.70;;;21.20;54.30;;;;;;4934195;29;20228;-58
2022/04/13 04:19:06;;;;;;;1.45;0.85;;;21.20;54.20;;;;;;4934269;29;20660;-59
2022/04/13 04:21:37;;;;;;;1.08;0.60;;;21.20;54.30;;;;;;4934486;29;20323;-57
2022/04/13 04:24:10;;;;;;;0.95;0.68;;;21.20;54.20;;;;;;4934085;29;20282;-59
2022/04/13 04:26:41;;;;;;;0.57;0.50;;;21.20;54.10;;;;;;4934776;29;20223;-59
2022/04/13 04:29:11;;;;;;;1.40;0.70;;;21.20;54.10;;;;;;4933990;29;20208;-59
2022/04/13 04:31:55;;;;;;;1.55;0.80;;;21.20;54.10;;;;;;4935093;29;20314;-59
2022/04/13 04:34:26;;;;;;;1.55;0.73;;;21.20;54.10;;;;;;4933430;29;20199;-59
2022/04/13 04:36:56;;;;;;;1.25;0.80;;;21.20;54.00;;;;;;4934275;29;20279;-59
2022/04/13 04:39:28;;;;;;;1.17;0.65;;;21.10;53.90;;;;;;4934036;29;20304;-58
2022/04/13 04:41:59;;;;;;;0.63;0.60;;;21.20;53.90;;;;;;4933182;29;20290;-58
2022/04/13 04:44:29;;;;;;;0.70;0.70;;;21.20;54.00;;;;;;4934398;29;20227;-59
2022/04/13 04:47:00;;;;;;;0.90;0.75;;;21.20;54.00;;;;;;4934053;29;20259;-59
2022/04/13 04:49:30;;;;;;;1.85;0.70;;;21.10;53.90;;;;;;4934371;29;20695;-59
2022/04/13 04:52:01;;;;;;;0.80;0.60;;;21.20;54.00;;;;;;4933483;29;20298;-58
2022/04/13 04:54:33;;;;;;;0.80;0.70;;;21.10;53.90;;;;;;4933716;29;20220;-59
2022/04/13 04:57:03;;;;;;;1.13;0.80;;;21.20;54.00;;;;;;4933583;29;20287;-59
2022/04/13 04:59:34;;;;;;;1.08;0.68;;;21.10;54.00;;;;;;4934003;29;20283;-59
2022/04/13 05:02:05;;;;;;;0.70;0.63;;;21.10;54.00;;;;;;4933114;29;20651;-58
2022/04/13 05:04:35;;;;;;;1.75;1.00;;;21.10;54.00;;;;;;4933695;29;20195;-58
2022/04/13 05:07:07;;;;;;;1.10;0.68;;;21.10;54.00;;;;;;4933262;29;20727;-59
2022/04/13 05:09:39;;;;;;;0.90;0.77;;;21.10;53.90;;;;;;4932272;29;20204;-59
2022/04/13 05:12:10;;;;;;;2.25;0.80;;;21.10;53.90;;;;;;4932327;29;20223;-58
2022/04/13 05:14:44;;;;;;;1.10;0.80;;;21.10;53.90;;;;;;4931979;29;20283;-58
2022/04/13 05:17:14;;;;;;;0.75;0.70;;;21.10;53.90;;;;;;4932405;29;20191;-59
2022/04/13 05:19:45;;;;;;;1.00;0.90;;;21.10;53.80;;;;;;4932280;29;20279;-59
2022/04/13 05:22:17;;;;;;;1.05;0.90;;;21.10;53.70;;;;;;4933445;29;20298;-59
2022/04/13 05:24:49;;;;;;;1.02;0.80;;;21.10;53.80;;;;;;4930769;29;20192;-58
2022/04/13 05:27:20;;;;;;;1.60;0.80;;;21.10;53.70;;;;;;4932134;29;20400;-59
2022/04/13 05:29:50;;;;;;;2.03;1.00;;;21.10;53.70;;;;;;4931902;29;20210;-58
2022/04/13 05:32:21;;;;;;;1.50;0.90;;;21.10;54.30;;;;;;4960480;23;20326;-60
2022/04/13 05:34:51;;;;;;;0.90;0.90;;;21.10;54.30;;;;;;4952068;28;20195;-59
2022/04/13 05:37:22;;;;;;;1.10;0.82;;;21.10;53.70;;;;;;4952317;28;20282;-58
2022/04/13 05:39:54;;;;;;;1.17;1.08;;;21.10;53.80;;;;;;4952641;28;20195;-60
2022/04/13 05:42:26;;;;;;;1.70;1.02;;;21.10;53.80;;;;;;4951978;28;20313;-59
2022/04/13 05:44:57;;;;;;;0.90;0.80;;;21.10;53.80;;;;;;4952894;28;20205;-58
2022/04/13 05:47:28;;;;;;;1.75;0.90;;;21.10;53.80;;;;;;4951281;28;20234;-58
2022/04/13 05:49:58;;;;;;;1.05;0.82;;;21.10;53.80;;;;;;4951778;28;20195;-59
2022/04/13 05:52:28;;;;;;;1.55;1.25;;;21.10;53.90;;;;;;4951901;28;20297;-58
2022/04/13 05:55:01;;;;;;;1.20;1.10;;;21.10;53.90;;;;;;4951377;28;20234;-59
2022/04/13 05:57:31;;;;;;;1.73;1.23;;;21.10;53.90;;;;;;4952162;28;20286;-58
2022/04/13 06:00:02;;;;;;;1.20;0.90;;;21.00;53.80;;;;;;4952049;28;20213;-58
2022/04/13 06:02:33;;;;;;;1.15;1.05;;;21.10;53.90;;;;;;4950892;28;20815;-58
2022/04/13 06:05:03;;;;;;;1.30;1.20;;;21.10;53.90;;;;;;4951876;28;20206;-58
2022/04/13 06:07:34;;;;;;;2.28;1.23;;;21.00;53.90;;;;;;4951621;28;20314;-59
2022/04/13 06:10:06;;;;;;;1.33;1.13;;;21.00;53.90;;;;;;4951389;28;20281;-58
2022/04/13 06:12:37;;;;;;;1.52;1.30;;;21.00;53.90;;;;;;4950767;28;20257;-60
2022/04/13 06:15:09;;;;;;;1.55;1.30;;;21.00;53.80;;;;;;4951018;28;20199;-60
2022/04/13 06:17:39;;;;;;;1.83;1.20;;;21.00;53.80;;;;;;4951503;28;20238;-58
2022/04/13 06:20:14;;;;;;;2.13;1.83;;;21.00;53.80;;;;;;4950662;28;20634;-58
2022/04/13 06:22:45;;;;;;;1.73;1.38;;;21.00;54.00;;;;;;4951130;28;20219;-60
2022/04/13 06:25:17;;;;;;;1.88;1.60;;;21.00;54.00;;;;;;4950099;28;20230;-60
2022/04/13 06:27:48;;;;;;;2.25;1.40;;;21.00;54.00;;;;;;4951409;28;20313;-60
2022/04/13 06:30:19;;;;;;;3.08;1.60;;;21.00;54.00;;;;;;4951584;28;20285;-61
2022/04/13 06:32:49;;;;;;;2.45;1.50;;;21.00;54.00;;;;;;4951431;28;20302;-58
2022/04/13 06:35:20;;;;;;;2.42;1.40;;;21.00;54.00;;;;;;4950533;28;20231;-60
2022/04/13 06:37:51;;;;;;;2.15;1.55;;;20.90;53.90;;;;;;4948165;28;20283;-60
2022/04/13 06:40:23;;;;;;;1.58;1.48;;;20.90;54.00;;;;;;4951165;28;20221;-60
2022/04/13 06:42:53;;;;;;;2.50;1.58;;;20.90;54.00;;;;;;4950800;28;20761;-57
2022/04/13 06:45:24;;;;;;;2.25;1.55;;;20.90;53.90;;;;;;4950562;28;20731;-60
2022/04/13 06:47:54;;;;;;;1.75;1.40;;;20.90;53.90;;;;;;4950580;28;21572;-60
2022/04/13 06:50:25;;;;;;;2.53;1.60;;;20.90;54.00;;;;;;4950936;28;20665;-61
2022/04/13 06:52:58;;;;;;;1.70;1.33;;;20.90;54.00;;;;;;4950356;28;20759;-60
2022/04/13 06:55:30;;;;;;;1.67;1.40;;;20.90;54.00;;;;;;4950527;29;20237;-58
2022/04/13 06:58:01;;;;;;;1.35;1.25;;;20.90;54.00;;;;;;4945517;28;20281;-58
2022/04/13 07:00:31;;;;;;;2.03;1.40;;;20.80;53.90;;;;;;4950140;29;20250;-58
2022/04/13 07:03:02;;;;;;;1.88;1.50;;;20.80;53.90;;;;;;4950869;28;20254;-60
2022/04/13 07:05:33;;;;;;;1.88;1.33;;;20.80;54.00;;;;;;4950659;28;20226;-60
2022/04/13 07:08:04;;;;;;;2.03;1.20;;;20.80;54.00;;;;;;4950690;28;20309;-58
2022/04/13 07:10:37;;;;;;;1.70;1.60;;;20.80;54.00;;;;;;4950970;28;20408;-59
2022/04/13 07:13:08;;;;;;;4.88;1.75;;;20.70;54.00;;;;;;4950421;28;20337;-59
2022/04/13 07:15:38;;;;;;;1.95;1.65;;;20.80;54.00;;;;;;4950135;28;20581;-60
2022/04/13 07:18:09;;;;;;;1.55;1.40;;;20.70;54.00;;;;;;4950506;28;20671;-59
2022/04/13 07:20:39;;;;;;;1.27;1.17;;;20.70;54.00;;;;;;4950536;28;20230;-57
2022/04/13 07:23:10;;;;;;;3.58;1.83;;;20.70;54.00;;;;;;4950341;28;20201;-60
2022/04/13 07:25:42;;;;;;;1.85;1.50;;;20.70;54.00;;;;;;4950016;28;20294;-60
2022/04/13 07:28:13;;;;;;;1.88;1.65;;;20.70;54.00;;;;;;4949904;28;20219;-60
2022/04/13 07:30:47;;;;;;;1.85;1.33;;;20.60;53.90;;;;;;4949357;28;20198;-59
2022/04/13 07:33:17;;;;;;;1.63;1.35;;;20.60;53.90;;;;;;4950048;28;20289;-59
2022/04/13 07:35:48;;;;;;;3.55;1.85;;;20.60;54.00;;;;;;4951296;28;20278;-60
2022/04/13 07:38:18;;;;;;;2.70;1.77;;;20.60;54.10;;;;;;4950587;28;20291;-60
2022/04/13 07:40:51;;;;;;;2.30;1.90;;;20.60;54.10;;;;;;4949877;28;20277;-59
2022/04/13 07:43:21;;;;;;;2.25;1.60;;;20.50;54.10;;;;;;4949613;28;20290;-60
2022/04/13 07:45:52;;;;;;;1.52;1.40;;;20.60;54.10;;;;;;4949903;28;20202;-60
2022/04/13 07:48:22;;;;;;;1.70;1.40;;;20.60;54.10;;;;;;4950207;28;20317;-58
2022/04/13 07:50:53;;;;;;;1.33;1.23;;;20.60;54.10;;;;;;4950032;28;20245;-58
2022/04/13 07:53:23;;;;;;;1.60;1.50;;;20.50;54.00;;;;;;4949527;28;20281;-57
2022/04/13 07:55:55;;;;;;;1.67;1.55;;;20.50;54.00;;;;;;4949477;28;20270;-58
2022/04/13 07:58:26;;;;;;;1.70;1.60;;;20.50;54.00;;;;;;4950129;28;20306;-58
2022/04/13 08:00:56;;;;;;;1.60;1.50;;;20.50;54.00;;;;;;4949113;28;20278;-58
2022/04/13 08:03:27;;;;;;;2.03;1.70;;;20.50;54.00;;;;;;4950207;28;20282;-58
2022/04/13 08:05:58;;;;;;;2.22;1.70;;;20.50;54.00;;;;;;4950202;28;20273;-60
2022/04/13 08:08:28;;;;;;;1.60;1.50;;;20.50;54.10;;;;;;4950237;28;20367;-58
2022/04/13 08:11:00;;;;;;;1.50;1.40;;;20.50;54.10;;;;;;4950059;28;20682;-60
2022/04/13 08:13:31;;;;;;;1.30;1.20;;;20.50;54.10;;;;;;4949549;29;20290;-60
2022/04/13 08:16:01;;;;;;;1.90;1.70;;;20.50;54.10;;;;;;4949392;29;20281;-60
2022/04/13 08:18:32;;;;;;;2.03;1.42;;;20.40;54.00;;;;;;4949399;28;20868;-59
2022/04/13 08:21:02;;;;;;;1.63;1.38;;;20.40;54.10;;;;;;4949659;28;20286;-60
2022/04/13 08:23:33;;;;;;;1.98;1.48;;;20.40;54.00;;;;;;4949646;28;20290;-59
2022/04/13 08:26:05;;;;;;;1.42;1.05;;;20.40;54.10;;;;;;4950011;28;20281;-60
2022/04/13 08:28:35;;;;;;;1.50;1.30;;;20.40;54.10;;;;;;4948958;28;20321;-60
2022/04/13 08:31:07;;;;;;;1.48;1.33;;;20.40;54.10;;;;;;4950293;28;20202;-60
2022/04/13 08:33:38;;;;;;;1.33;1.23;;;20.40;54.10;;;;;;4949803;28;20206;-60
2022/04/13 08:36:08;;;;;;;1.52;1.40;;;20.30;54.10;;;;;;4949513;28;20749;-60
2022/04/13 08:38:39;;;;;;;1.38;1.23;;;20.30;54.10;;;;;;4946746;29;20274;-53
2022/04/13 08:41:17;;;;;;;1.55;1.40;;;20.30;54.10;;;;;;4949448;28;20227;-60
2022/04/13 08:43:54;;;;;;;1.40;1.30;;;20.30;54.20;;;;;;4953002;28;20279;-60
2022/04/13 08:46:27;;;;;;;2.40;1.40;;;20.30;54.10;;;;;;4952061;28;20205;-59
2022/04/13 08:48:58;;;;;;;1.90;1.50;;;20.30;54.20;;;;;;4954197;28;20233;-60
2022/04/13 08:51:30;;;;;;;1.27;1.17;;;20.30;54.20;;;;;;4954432;28;20234;-60
2022/04/13 08:54:10;;;;;;;2.97;1.60;;;20.30;54.20;;;;;;4946103;28;20278;-59
2022/04/13 08:56:44;;;;;;;2.15;1.58;;;20.20;54.20;;;;;;4951804;28;20290;-58
2022/04/13 08:59:26;;;;;;;1.90;1.40;;;20.20;54.20;;;;;;4948610;28;20277;-59
2022/04/13 09:02:06;;;;;;;1.75;1.50;;;20.20;54.20;;;;;;4950490;28;20313;-59
2022/04/13 09:04:43;;;;;;;1.67;1.58;;;20.20;54.20;;;;;;4952808;28;20197;-59
2022/04/13 09:07:18;;;;;;;1.65;1.40;;;20.20;54.20;;;;;;4952669;28;20203;-59
2022/04/13 09:09:51;;;;;;;1.90;1.50;;;20.20;54.20;;;;;;4951870;28;20195;-58
2022/04/13 09:12:25;;;;;;;1.75;1.50;;;20.20;54.30;;;;;;4952963;28;20301;-60
2022/04/13 09:14:56;;;;;;;1.40;1.25;;;20.10;54.30;;;;;;4952662;28;20639;-60
2022/04/13 09:17:30;;;;;;;1.55;1.33;;;20.10;54.30;;;;;;4951655;28;20314;-60
2022/04/13 09:20:01;;;;;;;1.92;1.50;;;20.10;54.30;;;;;;4952232;28;20648;-60
2022/04/13 09:22:33;;;;;;;2.45;1.65;;;20.10;54.30;;;;;;4951734;28;20219;-60
2022/04/13 09:25:05;;;;;;;1.60;1.50;;;20.10;54.30;;;;;;4952210;28;20286;-60
2022/04/13 09:27:39;;;;;;;1.70;1.33;;;20.00;54.30;;;;;;4952067;29;20771;-60
2022/04/13 09:30:10;;;;;;;2.05;1.25;;;20.10;54.30;;;;;;4947306;29;20195;-60
2022/04/13 09:32:41;;;;;;;1.13;1.02;;;20.00;54.30;;;;;;4947590;29;20317;-60
2022/04/13 09:35:12;;;;;;;1.50;1.40;;;20.00;54.80;;;;;;4949657;29;20230;-60
2022/04/13 09:37:43;;;;;;;2.33;1.42;;;20.00;54.30;;;;;;4952631;28;20297;-60
2022/04/13 09:40:27;;;;;;;2.40;1.20;;;20.00;54.30;;;;;;4951439;28;20286;-60
2022/04/13 09:43:16;;;;;;;1.83;1.40;;;19.90;54.30;;;;;;4952111;28;20329;-60
2022/04/13 09:45:47;;;;;;;1.55;1.42;;;19.90;54.30;;;;;;4951972;28;20715;-60
2022/04/13 09:48:44;;;;;;;1.67;1.38;;;19.90;54.20;;;;;;4950241;29;20309;-60
2022/04/13 09:51:15;;;;;;;2.60;1.45;;;19.90;54.30;;;;;;4931287;28;20207;-61
2022/04/13 09:53:46;;;;;;;1.75;1.25;;;19.90;54.30;;;;;;4950550;28;20290;-61
2022/04/13 09:56:24;;;;;;;2.33;1.20;;;19.80;54.90;;;;;;4951747;28;20202;-60
2022/04/13 09:59:26;;;;;;;1.30;1.20;;;19.80;54.30;;;;;;4949693;29;20190;-60
2022/04/13 10:01:56;;;;;;;1.60;1.30;;;19.80;54.30;;;;;;4950762;29;20310;-60
2022/04/13 10:04:27;;;;;;;1.50;1.17;;;19.80;54.30;;;;;;4949029;28;20192;-61
2022/04/13 10:06:58;;;;;;;2.40;1.67;;;19.70;54.30;;;;;;4951839;28;20231;-60
2022/04/13 10:09:33;;;;;;;1.30;1.20;;;19.70;54.30;;;;;;4950891;28;20317;-59
2022/04/13 10:12:05;;;;;;;2.33;1.48;;;19.70;54.30;;;;;;4951151;28;20301;-60
2022/04/13 10:14:37;;;;;;;2.35;1.30;;;19.70;54.60;;;;;;4951297;28;20290;-60
2022/04/13 10:17:20;;;;;;;1.40;1.30;;;19.70;54.40;;;;;;4950639;28;20731;-61
2022/04/13 10:19:57;;;;;;;1.92;1.10;;;19.60;54.30;;;;;;4951878;28;20216;-61
2022/04/13 10:22:27;;;;;;;2.05;1.30;;;19.60;54.30;;;;;;4951849;28;20242;-61
2022/04/13 10:25:47;;;;;;;1.58;1.38;;;19.60;54.30;;;;;;4947423;28;20656;-60
2022/04/13 10:28:26;;;;;;;3.00;1.38;;;19.60;54.40;;;;;;4949871;29;20233;-61
2022/04/13 10:31:09;;;;;;;1.70;1.25;;;19.60;54.30;;;;;;4951782;28;20569;-62
2022/04/13 10:33:49;;;;;;;1.58;1.27;;;19.60;54.40;;;;;;4950192;28;20648;-60
2022/04/13 10:36:19;;;;;;;2.47;1.50;;;19.50;54.40;;;;;;4951256;28;20290;-61
2022/04/13 10:38:50;;;;;;;1.77;1.40;;;19.50;54.40;;;;;;4948129;28;20197;-61
2022/04/13 10:41:21;;;;;;;2.55;1.52;;;19.50;54.40;;;;;;4950433;28;20305;-61
2022/04/13 10:43:53;;;;;;;2.25;1.60;;;19.50;54.40;;;;;;4950488;28;20199;-60
2022/04/13 10:46:26;;;;;;;1.70;1.60;;;19.50;54.50;;;;;;4951075;28;20278;-61
2022/04/13 10:49:07;;;;;;;2.95;1.73;;;19.40;54.40;;;;;;4949750;28;20588;-61
2022/04/13 10:51:39;;;;;;;2.42;1.77;;;19.40;54.40;;;;;;4951028;28;20223;-60
2022/04/13 10:54:14;;;;;;;1.90;1.70;;;19.40;54.40;;;;;;4950536;28;20230;-60
2022/04/13 10:56:50;;;;;;;1.65;1.52;;;19.40;54.50;;;;;;4951076;28;20206;-61
2022/04/13 10:59:26;;;;;;;2.30;1.85;;;19.40;54.50;;;;;;4950261;28;20245;-58
2022/04/13 11:02:06;;;;;;;2.35;1.65;;;19.30;54.50;;;;;;4948473;28;20214;-60
2022/04/13 11:04:37;;;;;;;2.70;1.67;;;19.30;54.50;;;;;;4951173;28;20289;-60
2022/04/13 11:07:09;;;;;;;2.40;1.60;;;19.30;54.50;;;;;;4950817;28;20315;-60
2022/04/13 11:09:42;;;;;;;2.70;1.80;;;19.30;54.50;;;;;;4947247;28;20594;-60
2022/04/13 11:12:13;;;;;;;1.55;1.35;;;19.30;54.50;;;;;;4950014;28;20326;-60
2022/04/13 11:14:52;;;;;;;1.83;1.50;;;19.20;54.50;;;;;;4949876;29;20195;-61
2022/04/13 11:17:31;;;;;;;2.38;1.80;;;19.20;54.50;;;;;;4949615;28;20213;-59
2022/04/13 11:20:22;;;;;;;2.47;1.45;;;19.20;54.50;;;;;;4949758;28;20289;-61
2022/04/13 11:23:10;;;;;;;3.53;1.95;;;19.20;54.50;;;;;;4950163;28;20225;-62
2022/04/13 11:25:54;;;;;;;2.63;1.85;;;19.10;54.50;;;;;;4948877;28;20203;-60
2022/04/13 11:28:30;;;;;;;2.78;1.65;;;19.20;54.50;;;;;;4949855;28;20230;-61
2022/04/13 11:31:05;;;;;;;2.63;1.70;;;19.10;54.50;;;;;;4950881;28;20205;-61
2022/04/13 11:33:58;;;;;;;2.45;1.70;;;19.10;54.50;;;;;;4950022;28;20229;-61
2022/04/13 11:36:31;;;;;;;3.17;1.63;;;19.10;54.50;;;;;;4949047;29;20282;-60
2022/04/13 11:39:02;;;;;;;2.90;1.67;;;19.10;54.50;;;;;;4949841;28;20246;-62
2022/04/13 11:41:32;;;;;;;2.95;1.73;;;19.10;55.10;;;;;;4950429;28;20310;-62
2022/04/13 11:44:20;;;;;;;1.92;1.55;;;19.00;54.50;;;;;;4949134;28;20742;-60
2022/04/13 11:46:50;;;;;;;2.05;1.70;;;19.00;54.50;;;;;;4950677;28;20237;-62
2022/04/13 11:49:34;;;;;;;1.70;1.50;;;19.00;54.50;;;;;;4949468;28;20315;-61
2022/04/13 11:52:42;;;;;;;2.50;1.63;;;18.90;54.50;;;;;;4949920;28;20669;-61
2022/04/13 11:55:22;;;;;;;2.50;1.42;;;18.90;54.50;;;;;;4945321;28;20203;-62
2022/04/13 11:58:33;;;;;;;1.88;1.50;;;18.90;54.40;;;;;;4949771;28;20281;-60
2022/04/13 12:01:13;;;;;;;2.55;1.50;;;18.90;54.50;;;;;;4924650;28;20199;-61
2022/04/13 12:03:44;;;;;;;2.45;1.55;;;18.90;54.50;;;;;;4947419;28;20203;-61
2022/04/13 12:06:19;;;;;;;1.85;1.70;;;18.90;54.50;;;;;;4945962;28;20282;-62
2022/04/13 12:08:52;;;;;;;2.55;1.70;;;18.90;54.50;;;;;;4949457;29;20222;-62
2022/04/13 12:11:24;;;;;;;1.67;1.48;;;18.80;54.50;;;;;;4949274;28;20309;-62
2022/04/13 12:13:55;;;;;;;2.60;1.30;;;18.80;54.50;;;;;;4950428;28;20257;-61
2022/04/13 12:16:27;;;;;;;1.98;1.63;;;18.80;54.50;;;;;;4950033;28;20305;-62
2022/04/13 12:19:02;;;;;;;2.42;1.73;;;18.80;54.50;;;;;;4954146;28;20286;-61
2022/04/13 12:21:36;;;;;;;2.08;1.70;;;18.70;54.40;;;;;;4953496;28;20640;-60
2022/04/13 12:24:07;;;;;;;2.10;1.42;;;18.80;54.50;;;;;;4952811;29;20202;-61
2022/04/13 12:26:39;;;;;;;2.25;1.40;;;18.70;54.40;;;;;;4953956;28;20282;-62
2022/04/13 12:29:20;;;;;;;2.63;1.50;;;18.70;54.40;;;;;;4946969;28;20239;-60
2022/04/13 12:31:52;;;;;;;1.90;1.40;;;18.70;54.50;;;;;;4952946;28;20321;-61
2022/04/13 12:34:24;;;;;;;1.92;1.60;;;18.70;54.50;;;;;;4951226;28;20281;-62
2022/04/13 12:37:00;;;;;;;2.10;1.45;;;18.70;54.50;;;;;;4952584;29;20277;-62
2022/04/13 12:39:32;;;;;;;1.77;1.27;;;18.60;54.40;;;;;;4953479;28;20238;-61
2022/04/13 12:42:03;;;;;;;1.70;1.33;;;18.60;54.50;;;;;;4952394;28;20662;-61
2022/04/13 12:44:34;;;;;;;2.50;1.50;;;18.60;54.50;;;;;;4952521;28;20203;-62
2022/04/13 12:47:07;;;;;;;1.85;1.30;;;18.60;54.70;;;;;;4938184;29;20293;-62
2022/04/13 12:49:38;;;;;;;1.98;1.30;;;18.60;54.50;;;;;;4936999;29;20262;-62
2022/04/13 12:52:11;;;;;;;2.00;1.30;;;18.60;54.50;;;;;;4936581;29;20228;-61
2022/04/13 12:54:42;;;;;;;1.95;1.20;;;18.50;54.50;;;;;;4935342;29;20286;-60
2022/04/13 12:57:13;;;;;;;2.47;1.40;;;18.50;54.50;;;;;;4935372;29;20283;-61
2022/04/13 12:59:46;;;;;;;1.80;1.50;;;18.50;54.40;;;;;;4930469;29;20196;-61
2022/04/13 13:02:22;;;;;;;2.03;1.40;;;18.50;54.40;;;;;;4918034;29;20232;-62
2022/04/13 13:04:52;;;;;;;1.92;1.42;;;18.50;54.40;;;;;;4937887;29;20291;-60
2022/04/13 13:07:33;;;;;;;1.83;1.30;;;18.50;54.50;;;;;;4935677;29;20196;-60
2022/04/13 13:10:03;;;;;;;1.83;1.23;;;18.50;54.50;;;;;;4935566;29;20294;-61
2022/04/13 13:12:34;;;;;;;2.10;1.42;;;18.40;54.40;;;;;;4935354;29;20306;-61
2022/04/13 13:15:04;;;;;;;1.58;1.33;;;18.40;54.40;;;;;;4935351;29;20206;-61
2022/04/13 13:17:42;;;;;;;1.80;1.27;;;18.40;54.40;;;;;;4934610;29;20279;-61